Time;durP1;ratioP1;P1;durP2;ratioP2;P2;SDS_P1;SDS_P2;PMS_P1;PMS_P2;Temp;Humidity;BMP_temperature;BMP_pressure;BME280_temperature;BME280_humidity;BME280_pressure;Samples;Min_cycle;Max_cycle;Signal;HPM_P1;HPM_P2
2022/12/27 12:01:53;;;;;;;28.70;12.00;;;;;;;6.18;87.14;100476.70;639264;1325;563163;-79
2022/12/27 12:17:31;;;;;;;15.00;6.70;;;;;;;6.06;87.72;100495.35;645393;1325;138201;-81
2022/12/27 12:33:16;;;;;;;15.60;5.90;;;;;;;6.04;86.87;100503.46;644636;1313;138115;-79
2022/12/27 12:48:57;;;;;;;27.60;12.00;;;;;;;5.70;90.76;100505.48;649334;1323;138206;-80
2022/12/27 13:04:12;;;;;;;63.10;32.80;;;;;;;5.49;95.48;100516.88;643476;1315;138457;-80
2022/12/27 13:19:37;;;;;;;12.50;8.00;;;;;;;5.32;98.02;100536.84;643380;1315;138348;-81
2022/12/27 13:34:56;;;;;;;34.30;17.80;;;;;;;5.21;99.27;100542.34;642878;1318;138415;-81
2022/12/27 13:50:30;;;;;;;29.60;16.00;;;;;;;5.15;100.00;100541.38;645092;1313;138746;-80
2022/12/27 14:05:52;;;;;;;33.60;17.30;;;;;;;5.13;100.00;100551.86;646433;1318;139102;-80
2022/12/27 14:21:29;;;;;;;21.20;13.00;;;;;;;5.15;100.00;100566.30;645816;1323;138593;-81
2022/12/27 14:36:51;;;;;;;23.30;10.10;;;;;;;5.22;100.00;100585.12;646239;1315;139655;-80
2022/12/27 14:52:29;;;;;;;19.80;10.50;;;;;;;5.17;100.00;100597.55;648654;1315;139701;-79
2022/12/27 15:08:06;;;;;;;32.90;14.70;;;;;;;5.22;100.00;100614.23;646859;1321;139069;-78
2022/12/27 15:23:33;;;;;;;25.20;14.40;;;;;;;5.32;100.00;100615.58;650081;1302;139215;-78
2022/12/27 15:38:43;;;;;;;74.00;24.20;;;;;;;5.25;100.00;100635.78;645062;1302;139012;-78
2022/12/27 15:54:24;;;;;;;30.10;12.70;;;;;;;5.34;100.00;100651.66;651730;1306;140478;-79
2022/12/27 16:09:34;;;;;;;19.50;8.80;;;;;;;5.40;99.17;100679.63;650407;1294;140315;-80
2022/12/27 16:24:40;;;;;;;19.60;10.00;;;;;;;5.50;98.60;100695.11;653213;1307;138926;-78
2022/12/27 16:40:06;;;;;;;17.20;8.60;;;;;;;5.57;97.96;100697.16;652208;1295;139473;-80
2022/12/27 16:55:12;;;;;;;69.90;28.60;;;;;;;5.51;97.84;100699.95;655354;1295;138766;-81
2022/12/27 17:23:04;;;;;;;124.80;48.80;;;;;;;5.46;97.28;100716.21;631639;1334;544796;-81
2022/12/27 17:38:22;;;;;;;73.20;27.40;;;;;;;5.39;95.96;100733.27;642345;1319;138549;-81
2022/12/27 18:08:49;;;;;;;50.30;19.00;;;;;;;5.13;95.98;100756.09;644816;1321;138783;-80
2022/12/27 18:23:54;;;;;;;58.40;19.10;;;;;;;5.27;95.33;100763.13;645615;1321;138981;-83
2022/12/27 18:38:59;;;;;;;43.60;16.40;;;;;;;5.34;94.80;100778.46;649691;1320;138448;-80
2022/12/27 18:54:34;;;;;;;22.30;9.00;;;;;;;5.32;94.38;100792.30;650127;1317;138513;-80
2022/12/27 19:09:47;;;;;;;70.60;17.70;;;;;;;4.93;94.81;100815.45;647618;1321;138667;-82
2022/12/27 19:25:00;;;;;;;56.50;17.70;;;;;;;4.65;95.93;100833.30;645031;1312;138463;-80
2022/12/27 19:40:05;;;;;;;68.40;20.20;;;;;;;4.47;96.85;100844.86;647018;1304;138841;-81
2022/12/27 19:55:18;;;;;;;36.70;13.50;;;;;;;4.52;97.97;100851.33;648492;1318;140189;-83
2022/12/27 20:10:29;;;;;;;54.80;16.90;;;;;;;4.70;98.88;100863.52;647891;1319;138490;-81
2022/12/27 20:25:35;;;;;;;67.70;22.50;;;;;;;4.71;99.78;100871.61;650795;1318;139145;-81
2022/12/27 20:40:39;;;;;;;69.80;23.80;;;;;;;4.81;99.96;100881.81;648441;1319;139281;-81
2022/12/27 20:55:43;;;;;;;44.00;14.30;;;;;;;4.92;99.54;100881.58;653435;1297;139005;-81
2022/12/27 21:10:47;;;;;;;51.00;19.90;;;;;;;5.03;99.28;100877.02;650129;1313;139470;-81
2022/12/27 21:25:51;;;;;;;46.70;21.10;;;;;;;5.11;98.47;100874.26;652485;1301;138703;-82
2022/12/27 21:41:16;;;;;;;26.50;9.10;;;;;;;5.09;97.74;100875.46;656703;1304;139038;-82
2022/12/27 21:56:21;;;;;;;36.80;17.10;;;;;;;4.93;97.44;100876.70;655585;1313;138851;-82
2022/12/27 22:11:28;;;;;;;23.80;11.00;;;;;;;4.72;97.56;100878.16;654205;1313;138589;-80
2022/12/27 22:26:36;;;;;;;18.50;8.70;;;;;;;4.64;96.89;100878.76;649456;1308;139368;-81
2022/12/27 22:41:39;;;;;;;28.80;12.30;;;;;;;4.49;97.11;100888.89;650402;1304;137986;-81
2022/12/27 22:56:43;;;;;;;28.10;10.80;;;;;;;4.33;97.39;100897.52;648573;1310;138848;-82
2022/12/27 23:11:46;;;;;;;18.30;7.30;;;;;;;4.32;97.45;100896.20;649560;1309;138712;-81
2022/12/27 23:26:55;;;;;;;15.60;7.30;;;;;;;4.35;97.89;100898.47;647936;1298;138500;-81
2022/12/27 23:42:02;;;;;;;21.50;9.00;;;;;;;4.40;98.08;100886.45;649319;1311;139103;-80
2022/12/27 23:57:08;;;;;;;16.70;8.40;;;;;;;4.46;97.91;100884.04;648063;1300;138658;-80
